« 民航 小松飛行場 2014/11/10 mon | トップページ | 定点 富山空港 2014/11/16 sun »

2014/11/16

平成26年度緊急消防援助隊中部ブロック合同訓練 能登空港 2014/11/15 sat

マニアの皆様は、日米共同訓練が実施されている小松に張り付きですかね。訓練期間中の週末でフライトがバシバシありそうで・・・

おかげで、ラジオは五月蝿いくらい喧しい・・ お山のきのこが見えるのと海山空港へ

RJNW 150000Z 30005KT 250V360 6000 -SHRA FEW005 SCT020 BKN030 06/04 Q1023

20141115_rjnw_00ja8997

20141115_rjnw_01ja8997

20141115_rjnw_02ja8997

ANA747 RJNT-RJNW JA8997 A320-211

20141115_rjnw_03ja8997

20141115_rjnw_04ja8997

20141115_rjnw_05ja8997

ANA748 RJNW-RJTT JA8997 A320-211

ここまでは、日常の能登空港です。寒い北風荒ぶ所に小松を蹴って何をわざわざ、なのですが、本年度の「緊急消防援助隊中部ブロック合同訓練」が珠洲で行われるのがミソ。

20141115_rjnw_06ja893f

JA893F B412 石川県消防防災

午後になって、地元の防災へり「はくさん」がやって来た。

RJNW 150400Z 31006KT 250V020 9999 FEW025 SCT035 BKN045 07/03 Q1022

20141115_rjnw_07ja2435

JA2435 SF25 日本航空学園

午前中は雨模様の空だったのか・・ あれが見たいから上がったのか、午後から訓練を始めた。

20141115_rjnw_08ja893f

防災へりもお腹をいっぱいにして・・

20141115_rjnw_09c351072

14時前 遠くに機影が見えました。駱駝ちゃんです。

20141115_rjnw_10c351072

20141115_rjnw_11c351072

緊急消防援助隊中部ブロック合同訓練の一環の「航空自衛隊輸送機による消防車両等の空輸訓練」として、小牧基地から緊急消防援助隊愛知県隊の消防車両を空輸して来たのです。

RJNW 150500Z 30005KT 240V350 9999 FEW020 SCT030 BKN040 06/03 Q1023

20141115_rjnw_12c351072

マーシャラーを降ろして、駐機位置を確認。自走でお尻をターミナルに向けて駐機します。

20141115_rjnw_13c351072

35-1072 C-130H 401SQ C72

*** whitewing681 さんの動画 ***

*******

20141115_rjnw_14c951081

10分後2機目が進入。風は北からなのでライトウイングローで着陸です。

20141115_rjnw_15c951081

95-1081 C-130H 401SQ C81

20141115_rjnw_16c951081

20141115_rjnw_17c951081

この機は、まっすぐスポットインします。

20141115_rjnw_18c951081

2機がエプロンに並びました。

20141115_rjnw_19c351072

搭載貨物の取り卸が始まり、#71に乗っていたのが岡崎市消防本部所属の「全地形対応車」

20141115_rjnw_20c951081

#81からは名古屋市消防局ハイパーレスキュー隊の「Ⅳ型救助車」2台

20141115_rjnw_21ja893f

防災へりがサーチ&レスキューに出発

20141115_rjnw_22okazakifd

「全地形対応車」は輸送トラックに載せられ、集結している本隊に合流する。

*** whitewing681 さんの動画 ***

*******

20141115_rjnw_23ja967a

20141115_rjnw_24ja967a

JA967A AW139 JCG

海保のへりもやって来た。

RJNW 150600Z 29004KT 240V340 9999 -SHRA FEW015 SCT020 BKN030 06/03 Q1024

20141115_rjnw_25c351072

お勤めが終わって小牧に帰還です。到着順にIFRで出発。

20141115_rjnw_26c951081

エンジンスタート中

20141115_rjnw_27c351072

35-1072 C-130H 401SQ C72

お勤めご苦労様でした。イザと言うときも4649です。

20141115_rjnw_28c951081

#81は、チョコットリバースでバックして・・

20141115_rjnw_29c951081

ロードマスターの方がお手降りを返してくれました。

20141115_rjnw_30c951081

95-1081 C-130H 401SQ C81

20141115_rjnw_31c951081

Pさんもお手降りしてくれたけど、撮れてない・・・ 動画に期待!

20141115_rjnw_32ja967a

20141115_rjnw_33ja967a

海保さんもお帰り

20141115_rjnw_34ja893f

20141115_rjnw_35ja893f

ミッションしてた防災も帰ってきて、再度給油

20141115_rjnw_36ja53an

20141115_rjnw_37ja53an

ANA749 RJTT-RJNW JA53AN B737-881

20141115_rjnw_38ja893f

20141115_rjnw_39ja893f

給油を終えて、小松に帰還です。合同訓練は明日が本番。成果がでるようがんばってくださーい。

RJNW 150700Z 26004KT 240V310 9999 FEW020 SCT030 BKN040 06/03 Q1024

|

« 民航 小松飛行場 2014/11/10 mon | トップページ | 定点 富山空港 2014/11/16 sun »

能登空港」カテゴリの記事

コメント

コメントを書く



(ウェブ上には掲載しません)


コメントは記事投稿者が公開するまで表示されません。



トラックバック


この記事へのトラックバック一覧です: 平成26年度緊急消防援助隊中部ブロック合同訓練 能登空港 2014/11/15 sat:

« 民航 小松飛行場 2014/11/10 mon | トップページ | 定点 富山空港 2014/11/16 sun »